Time;durP1;ratioP1;P1;durP2;ratioP2;P2;SDS_P1;SDS_P2;PMS_P1;PMS_P2;Temp;Humidity;BMP_temperature;BMP_pressure;BME280_temperature;BME280_humidity;BME280_pressure;Samples;Min_cycle;Max_cycle;Signal;HPM_P1;HPM_P2
2024/01/29 00:00:15;;;;;;;25.55;11.45;;;3.50;98.60;;;;;;5093722;28;20032;-64
2024/01/29 00:02:42;;;;;;;25.10;10.85;;;3.40;98.60;;;;;;5093157;28;20048;-66
2024/01/29 00:05:08;;;;;;;24.95;12.48;;;3.40;98.90;;;;;;5093633;28;20028;-64
2024/01/29 00:07:33;;;;;;;31.77;12.02;;;3.40;99.00;;;;;;5093273;28;20476;-66
2024/01/29 00:09:59;;;;;;;23.58;11.90;;;3.40;99.00;;;;;;5092274;28;20429;-64
2024/01/29 00:12:24;;;;;;;24.13;11.55;;;3.40;99.00;;;;;;5093518;28;20036;-65
2024/01/29 00:14:50;;;;;;;27.33;11.10;;;3.40;98.90;;;;;;5092963;28;20504;-64
2024/01/29 00:17:16;;;;;;;23.30;10.77;;;3.40;98.70;;;;;;5093018;28;20107;-64
2024/01/29 00:19:41;;;;;;;27.88;12.18;;;3.30;98.50;;;;;;5092759;28;20036;-65
2024/01/29 00:22:07;;;;;;;22.33;10.85;;;3.30;98.50;;;;;;5093334;28;20098;-64
2024/01/29 00:24:32;;;;;;;22.63;10.30;;;3.30;98.50;;;;;;5093113;28;20480;-65
2024/01/29 00:26:58;;;;;;;26.70;10.82;;;3.30;98.30;;;;;;5092955;28;20069;-64
2024/01/29 00:29:24;;;;;;;23.90;11.50;;;3.30;98.20;;;;;;5093252;28;20054;-64
2024/01/29 00:31:49;;;;;;;25.15;11.52;;;3.20;98.00;;;;;;5092540;28;20056;-64
2024/01/29 00:34:15;;;;;;;22.10;10.73;;;3.20;98.10;;;;;;5093140;28;20063;-65
2024/01/29 00:36:40;;;;;;;24.27;11.30;;;3.10;98.00;;;;;;5092496;28;20016;-64
2024/01/29 00:39:09;;;;;;;24.92;11.65;;;3.10;98.10;;;;;;5093045;28;20039;-64
2024/01/29 00:41:38;;;;;;;28.60;12.18;;;3.10;98.10;;;;;;5093011;28;20354;-64
2024/01/29 00:44:03;;;;;;;23.60;11.40;;;3.10;98.00;;;;;;5091599;28;20115;-64
2024/01/29 00:46:29;;;;;;;23.45;10.50;;;3.10;97.90;;;;;;5092942;28;20534;-64
2024/01/29 00:48:55;;;;;;;22.27;10.57;;;3.00;98.00;;;;;;5092392;28;20024;-64
2024/01/29 00:51:20;;;;;;;27.40;11.55;;;3.00;98.10;;;;;;5093195;28;20028;-65
2024/01/29 00:53:47;;;;;;;28.02;12.77;;;2.90;98.20;;;;;;5092699;28;20035;-64
2024/01/29 00:56:13;;;;;;;29.17;13.25;;;2.90;98.20;;;;;;5092447;28;20444;-63
2024/01/29 00:58:43;;;;;;;30.05;15.50;;;2.90;98.10;;;;;;5091931;28;20067;-64
2024/01/29 01:01:09;;;;;;;33.17;14.63;;;2.90;97.90;;;;;;5092485;28;20404;-64
2024/01/29 01:03:34;;;;;;;26.00;13.40;;;2.80;97.90;;;;;;5092860;28;20020;-63
2024/01/29 01:06:00;;;;;;;30.75;14.13;;;2.80;97.80;;;;;;5092105;28;20386;-64
2024/01/29 01:08:26;;;;;;;28.80;13.63;;;2.80;97.70;;;;;;5091185;28;20353;-64
2024/01/29 01:10:52;;;;;;;26.13;12.77;;;2.70;97.70;;;;;;5092015;28;20460;-64
2024/01/29 01:13:17;;;;;;;32.05;13.93;;;2.60;97.70;;;;;;5092431;28;20024;-64
2024/01/29 01:15:43;;;;;;;31.00;13.82;;;2.60;97.90;;;;;;5091716;28;20054;-64
2024/01/29 01:18:08;;;;;;;27.67;13.95;;;2.60;98.20;;;;;;5092130;28;20444;-63
2024/01/29 01:20:34;;;;;;;30.10;13.57;;;2.50;98.30;;;;;;5091865;28;20032;-64
2024/01/29 01:23:01;;;;;;;28.58;13.77;;;2.50;98.40;;;;;;5101159;28;20028;-64
2024/01/29 01:25:27;;;;;;;27.92;13.25;;;2.50;98.40;;;;;;5112435;28;20027;-64
2024/01/29 01:27:53;;;;;;;34.90;13.32;;;2.40;98.30;;;;;;5111845;28;20034;-64
2024/01/29 01:30:20;;;;;;;30.17;13.73;;;2.30;98.40;;;;;;5112455;28;20034;-64
2024/01/29 01:32:46;;;;;;;24.90;14.40;;;2.30;98.70;;;;;;5112158;28;20384;-64
2024/01/29 01:35:12;;;;;;;32.25;14.18;;;2.30;98.90;;;;;;5112725;28;20023;-64
2024/01/29 01:37:37;;;;;;;27.58;14.55;;;2.30;99.00;;;;;;5111168;28;20031;-64
2024/01/29 01:40:04;;;;;;;31.50;14.13;;;2.30;99.10;;;;;;5111834;28;20024;-64
2024/01/29 01:42:30;;;;;;;31.38;14.00;;;2.20;99.20;;;;;;5112311;28;20157;-63
2024/01/29 01:44:56;;;;;;;29.60;14.00;;;2.20;99.10;;;;;;5111804;28;20039;-64
2024/01/29 01:47:22;;;;;;;32.45;14.15;;;2.20;99.00;;;;;;5112338;28;20119;-64
2024/01/29 01:49:48;;;;;;;28.88;13.55;;;2.10;99.00;;;;;;5105189;28;20426;-64
2024/01/29 01:52:17;;;;;;;28.73;15.02;;;2.10;99.10;;;;;;5091745;28;20113;-64
2024/01/29 01:54:43;;;;;;;31.15;13.63;;;2.10;99.20;;;;;;5091236;28;20070;-66
2024/01/29 01:57:10;;;;;;;32.47;14.65;;;2.10;99.30;;;;;;5091732;28;20028;-64
2024/01/29 01:59:38;;;;;;;25.50;13.40;;;2.10;99.40;;;;;;5091757;28;20036;-64
2024/01/29 02:02:04;;;;;;;27.85;14.05;;;2.10;99.40;;;;;;5089788;28;20055;-64
2024/01/29 02:04:29;;;;;;;25.58;14.30;;;2.10;99.50;;;;;;5091881;28;20055;-65
2024/01/29 02:06:56;;;;;;;30.15;14.85;;;2.10;99.40;;;;;;5091026;28;20052;-64
2024/01/29 02:09:22;;;;;;;28.05;13.80;;;2.10;99.30;;;;;;5091716;28;20040;-64
2024/01/29 02:11:48;;;;;;;29.35;13.05;;;2.00;99.50;;;;;;5091174;28;20024;-63
2024/01/29 02:14:13;;;;;;;30.30;13.77;;;2.00;99.60;;;;;;5091491;28;20481;-64
2024/01/29 02:16:39;;;;;;;28.65;13.77;;;2.00;99.70;;;;;;5091162;28;20108;-64
2024/01/29 02:19:14;;;;;;;26.05;13.35;;;2.00;99.60;;;;;;5091114;28;20036;-64
2024/01/29 02:21:40;;;;;;;28.25;13.48;;;2.00;99.70;;;;;;5091672;28;20131;-64
2024/01/29 02:24:06;;;;;;;30.80;13.57;;;2.00;99.90;;;;;;5091238;28;20097;-64
2024/01/29 02:26:31;;;;;;;29.85;13.48;;;2.00;99.90;;;;;;5091711;28;20025;-64
2024/01/29 02:28:57;;;;;;;32.28;13.63;;;2.00;99.90;;;;;;5091140;28;20066;-64
2024/01/29 02:31:23;;;;;;;29.73;13.00;;;1.90;99.90;;;;;;5091333;28;20102;-64
2024/01/29 02:33:49;;;;;;;29.45;13.20;;;1.90;99.90;;;;;;5090854;28;20503;-64
2024/01/29 02:36:16;;;;;;;29.17;13.18;;;1.90;99.90;;;;;;5091491;28;20528;-65
2024/01/29 02:38:42;;;;;;;29.20;12.32;;;1.90;99.90;;;;;;5091476;28;20017;-64
2024/01/29 02:41:08;;;;;;;35.25;13.88;;;1.90;99.90;;;;;;5091173;28;20125;-64
2024/01/29 02:43:34;;;;;;;28.60;12.82;;;1.90;99.90;;;;;;5091774;28;20028;-64
2024/01/29 02:45:59;;;;;;;28.00;13.25;;;1.90;99.90;;;;;;5090898;28;20107;-66
2024/01/29 02:48:25;;;;;;;23.38;11.38;;;1.90;99.90;;;;;;5090867;28;20425;-64
2024/01/29 02:50:51;;;;;;;24.48;12.10;;;1.90;99.90;;;;;;5090714;28;20105;-65
2024/01/29 02:53:16;;;;;;;29.80;12.65;;;1.90;99.90;;;;;;5091055;28;20028;-64
2024/01/29 02:55:42;;;;;;;24.98;12.20;;;1.90;99.90;;;;;;5092119;28;20031;-64
2024/01/29 02:58:08;;;;;;;27.08;12.35;;;1.90;99.90;;;;;;5094503;28;20039;-65
2024/01/29 03:00:33;;;;;;;29.15;12.75;;;1.80;99.90;;;;;;5093805;28;20055;-64
2024/01/29 03:02:59;;;;;;;27.15;12.57;;;1.80;99.90;;;;;;5094100;28;20052;-65
2024/01/29 03:05:25;;;;;;;27.00;12.43;;;1.70;99.90;;;;;;5094932;28;20020;-64
2024/01/29 03:07:51;;;;;;;21.25;12.02;;;1.80;99.90;;;;;;5094685;28;20028;-65
2024/01/29 03:10:17;;;;;;;25.92;11.45;;;1.80;99.90;;;;;;5094943;28;20380;-64
2024/01/29 03:12:42;;;;;;;22.92;11.90;;;1.80;99.90;;;;;;5094955;28;20028;-64
2024/01/29 03:15:08;;;;;;;29.02;12.73;;;1.80;99.90;;;;;;5093814;28;20034;-64
2024/01/29 03:17:34;;;;;;;29.05;11.70;;;1.80;99.90;;;;;;5094841;28;20047;-64
2024/01/29 03:19:59;;;;;;;28.45;12.30;;;1.70;99.90;;;;;;5094173;28;20086;-63
2024/01/29 03:22:25;;;;;;;24.08;10.55;;;1.80;99.90;;;;;;5094216;28;20078;-64
2024/01/29 03:24:51;;;;;;;23.90;10.50;;;1.70;99.90;;;;;;5094069;28;20055;-65
2024/01/29 03:27:16;;;;;;;25.17;11.35;;;1.70;99.90;;;;;;5094401;28;20024;-64
2024/01/29 03:29:42;;;;;;;24.98;10.93;;;1.70;99.90;;;;;;5096695;28;20030;-63
2024/01/29 03:32:09;;;;;;;22.73;11.43;;;1.60;99.90;;;;;;5114053;28;20028;-63
2024/01/29 03:34:34;;;;;;;26.17;11.13;;;1.60;99.90;;;;;;5114904;28;20057;-64
2024/01/29 03:37:00;;;;;;;24.40;10.88;;;1.60;99.90;;;;;;5114267;28;20024;-65
2024/01/29 03:39:25;;;;;;;17.70;10.25;;;1.60;99.90;;;;;;5114530;28;20031;-65
2024/01/29 03:41:51;;;;;;;24.25;10.90;;;1.60;99.90;;;;;;5114487;28;20520;-69
2024/01/29 03:44:17;;;;;;;22.50;9.57;;;1.60;99.90;;;;;;5111102;28;20024;-64
2024/01/29 03:46:42;;;;;;;23.45;11.35;;;1.60;99.90;;;;;;5093573;28;20024;-64
2024/01/29 03:49:08;;;;;;;20.15;10.00;;;1.60;99.90;;;;;;5093878;28;20050;-64
2024/01/29 03:51:34;;;;;;;21.55;10.70;;;1.60;99.90;;;;;;5093007;28;20136;-64
2024/01/29 03:54:00;;;;;;;19.52;10.18;;;1.60;99.90;;;;;;5093589;28;20024;-64
2024/01/29 03:56:25;;;;;;;22.75;10.43;;;1.60;99.90;;;;;;5093609;28;20091;-64
2024/01/29 03:58:51;;;;;;;20.83;9.93;;;1.60;99.90;;;;;;5093796;28;20028;-64
2024/01/29 04:01:27;;;;;;;15.82;9.38;;;1.60;99.90;;;;;;5093080;28;20056;-63
2024/01/29 04:03:53;;;;;;;17.38;9.40;;;1.70;99.90;;;;;;5093548;28;20063;-65
2024/01/29 04:06:19;;;;;;;22.58;9.82;;;1.80;99.90;;;;;;5093377;28;20051;-64
2024/01/29 04:08:44;;;;;;;16.85;9.48;;;1.80;99.90;;;;;;5092446;28;20419;-64
2024/01/29 04:11:10;;;;;;;18.25;9.38;;;1.90;99.90;;;;;;5092973;28;20107;-64
2024/01/29 04:13:36;;;;;;;16.92;9.45;;;1.90;99.90;;;;;;5093373;28;20111;-64
2024/01/29 04:16:03;;;;;;;22.40;8.82;;;1.90;99.90;;;;;;5093194;28;20020;-63
2024/01/29 04:18:28;;;;;;;22.88;9.45;;;1.90;99.90;;;;;;5093761;28;20039;-64
2024/01/29 04:20:54;;;;;;;18.02;9.52;;;1.90;99.90;;;;;;5093356;28;20036;-65
2024/01/29 04:23:20;;;;;;;18.75;10.27;;;1.90;99.90;;;;;;5093151;28;20349;-64
2024/01/29 04:25:45;;;;;;;18.77;9.70;;;1.90;99.90;;;;;;5092115;28;20020;-64
2024/01/29 04:28:11;;;;;;;18.85;9.77;;;1.90;99.90;;;;;;5092983;28;20046;-65
2024/01/29 04:30:37;;;;;;;19.70;10.35;;;1.90;99.90;;;;;;5093266;28;20032;-64
2024/01/29 04:33:03;;;;;;;19.40;10.02;;;1.90;99.90;;;;;;5092559;28;20024;-65
2024/01/29 04:35:29;;;;;;;18.08;9.90;;;1.90;99.90;;;;;;5093182;28;20035;-64
2024/01/29 04:37:54;;;;;;;18.92;9.70;;;1.90;99.90;;;;;;5093228;28;20046;-64
2024/01/29 04:40:22;;;;;;;19.55;10.52;;;1.80;99.90;;;;;;5092647;28;20036;-64
2024/01/29 04:42:48;;;;;;;19.35;10.73;;;1.80;99.90;;;;;;5093120;28;20127;-63
2024/01/29 04:45:14;;;;;;;21.83;9.95;;;1.70;99.90;;;;;;5091346;28;20423;-64
2024/01/29 04:47:40;;;;;;;19.88;10.25;;;1.70;99.90;;;;;;5092974;28;20024;-64
2024/01/29 04:50:06;;;;;;;17.70;11.13;;;1.60;99.90;;;;;;5092583;28;20070;-65
2024/01/29 04:52:31;;;;;;;22.20;10.73;;;1.50;99.90;;;;;;5093111;28;20020;-63
2024/01/29 04:54:57;;;;;;;24.13;10.45;;;1.50;99.90;;;;;;5092582;28;20384;-64
2024/01/29 04:57:22;;;;;;;23.02;11.10;;;1.40;99.90;;;;;;5093008;28;20032;-63
2024/01/29 04:59:48;;;;;;;21.92;10.80;;;1.40;99.90;;;;;;5091404;28;20124;-63
2024/01/29 05:02:13;;;;;;;21.80;11.07;;;1.30;99.90;;;;;;5092388;28;20464;-64
2024/01/29 05:04:39;;;;;;;19.90;11.38;;;1.40;99.90;;;;;;5093011;28;20028;-65
2024/01/29 05:07:05;;;;;;;19.63;11.15;;;1.30;99.90;;;;;;5092316;28;20346;-64
2024/01/29 05:09:30;;;;;;;24.10;10.40;;;1.40;99.90;;;;;;5092773;28;20075;-65
2024/01/29 05:11:56;;;;;;;20.27;11.35;;;1.30;99.90;;;;;;5092702;28;20024;-64
2024/01/29 05:14:23;;;;;;;18.85;10.93;;;1.30;99.90;;;;;;5091995;28;20035;-64
2024/01/29 05:16:49;;;;;;;30.45;11.18;;;1.30;99.90;;;;;;5092185;28;20056;-64
2024/01/29 05:19:15;;;;;;;19.95;11.60;;;1.30;99.90;;;;;;5091760;28;20121;-65
2024/01/29 05:21:40;;;;;;;29.40;11.48;;;1.30;99.90;;;;;;5091497;28;20043;-64
2024/01/29 05:24:06;;;;;;;24.00;12.05;;;1.30;99.90;;;;;;5096100;28;20032;-64
2024/01/29 05:26:31;;;;;;;24.55;12.13;;;1.30;99.90;;;;;;5103421;28;20094;-64
2024/01/29 05:28:57;;;;;;;23.38;11.57;;;1.40;99.90;;;;;;5101950;28;20038;-64
2024/01/29 05:31:23;;;;;;;21.33;11.77;;;1.40;99.90;;;;;;5098140;28;20487;-64
2024/01/29 05:33:48;;;;;;;20.80;12.38;;;1.40;99.90;;;;;;5103424;28;20020;-64
2024/01/29 05:36:14;;;;;;;33.00;12.88;;;1.40;99.90;;;;;;5093862;28;20469;-65
2024/01/29 05:38:40;;;;;;;25.23;12.90;;;1.40;99.90;;;;;;5097544;28;20028;-65
2024/01/29 05:41:05;;;;;;;21.42;12.25;;;1.40;99.90;;;;;;5098999;28;20526;-65
2024/01/29 05:43:31;;;;;;;25.48;12.98;;;1.40;99.90;;;;;;5112014;28;20028;-64
2024/01/29 05:45:56;;;;;;;31.48;13.23;;;1.40;99.90;;;;;;5105750;28;20111;-64
2024/01/29 05:48:22;;;;;;;27.35;12.13;;;1.40;99.90;;;;;;5089735;28;20089;-65
2024/01/29 05:50:47;;;;;;;20.67;12.40;;;1.40;99.90;;;;;;5103284;28;20110;-65
2024/01/29 05:53:13;;;;;;;22.80;11.85;;;1.40;99.90;;;;;;5108359;28;20024;-64
2024/01/29 05:55:39;;;;;;;23.85;13.23;;;1.40;99.90;;;;;;5102134;28;20019;-63
2024/01/29 05:58:06;;;;;;;23.88;12.75;;;1.30;99.90;;;;;;5091263;28;20434;-66
2024/01/29 06:00:31;;;;;;;22.75;13.07;;;1.30;99.90;;;;;;5091501;28;20040;-64
2024/01/29 06:02:57;;;;;;;26.48;13.60;;;1.30;99.90;;;;;;5092004;28;20109;-65
2024/01/29 06:05:22;;;;;;;25.80;14.52;;;1.30;99.90;;;;;;5091362;28;20021;-64
2024/01/29 06:07:48;;;;;;;26.40;13.77;;;1.30;99.90;;;;;;5091561;28;20027;-65
2024/01/29 06:10:14;;;;;;;25.60;14.50;;;1.30;99.90;;;;;;5091456;28;20465;-65
2024/01/29 06:12:40;;;;;;;27.63;15.63;;;1.30;99.90;;;;;;5090459;28;20028;-65
2024/01/29 06:15:06;;;;;;;22.83;14.40;;;1.30;99.90;;;;;;5091179;28;20035;-64
2024/01/29 06:17:32;;;;;;;25.88;13.68;;;1.30;99.90;;;;;;5091232;28;20031;-64
2024/01/29 06:19:58;;;;;;;25.88;15.35;;;1.30;99.90;;;;;;5091163;28;20035;-64
2024/01/29 06:22:23;;;;;;;27.02;14.90;;;1.30;99.90;;;;;;5090794;28;20024;-65
2024/01/29 06:24:49;;;;;;;23.80;14.75;;;1.30;99.90;;;;;;5090964;28;20020;-64
2024/01/29 06:27:14;;;;;;;24.17;14.95;;;1.30;99.90;;;;;;5089349;28;20020;-65
2024/01/29 06:29:40;;;;;;;24.52;15.93;;;1.30;99.90;;;;;;5091328;28;20032;-64
2024/01/29 06:32:06;;;;;;;25.77;14.65;;;1.30;99.90;;;;;;5094237;28;20457;-65
2024/01/29 06:34:33;;;;;;;29.75;14.63;;;1.30;99.90;;;;;;5095653;28;20021;-64
2024/01/29 06:36:59;;;;;;;31.35;15.77;;;1.30;99.90;;;;;;5095186;28;20036;-65
2024/01/29 06:39:25;;;;;;;29.10;15.85;;;1.30;99.90;;;;;;5094765;28;20082;-65
2024/01/29 06:41:50;;;;;;;28.65;15.93;;;1.30;99.90;;;;;;5094055;28;20065;-65
2024/01/29 06:44:17;;;;;;;24.50;14.95;;;1.30;99.90;;;;;;5094517;28;20073;-64
2024/01/29 06:46:42;;;;;;;31.25;15.18;;;1.30;99.90;;;;;;5091308;28;20460;-64
2024/01/29 06:49:23;;;;;;;25.13;15.05;;;1.20;99.90;;;;;;5093358;28;20024;-64
2024/01/29 06:51:48;;;;;;;27.33;15.30;;;1.30;99.90;;;;;;5076289;28;20034;-64
2024/01/29 06:54:15;;;;;;;23.20;15.10;;;1.30;99.90;;;;;;5092266;28;20043;-65
2024/01/29 06:56:41;;;;;;;26.83;14.73;;;1.20;99.90;;;;;;5094394;28;20141;-65
2024/01/29 06:59:06;;;;;;;32.58;16.27;;;1.20;99.90;;;;;;5093978;28;20453;-65
2024/01/29 07:01:34;;;;;;;28.00;15.05;;;1.20;99.90;;;;;;5094394;28;20039;-64
2024/01/29 07:03:59;;;;;;;24.73;15.90;;;1.20;99.90;;;;;;5094521;28;20127;-66
2024/01/29 07:06:25;;;;;;;27.83;15.18;;;1.20;99.90;;;;;;5094269;28;20458;-65
2024/01/29 07:08:51;;;;;;;28.27;14.93;;;1.20;99.90;;;;;;5094102;28;20032;-64
2024/01/29 07:11:16;;;;;;;30.95;15.00;;;1.20;99.90;;;;;;5093692;28;20518;-64
2024/01/29 07:13:42;;;;;;;28.35;15.23;;;1.20;99.90;;;;;;5092741;28;20020;-65
2024/01/29 07:16:07;;;;;;;23.35;14.68;;;1.20;99.90;;;;;;5093651;28;20020;-65
2024/01/29 07:18:33;;;;;;;26.58;15.52;;;1.20;99.90;;;;;;5093916;28;20021;-65
2024/01/29 07:20:59;;;;;;;26.63;15.13;;;1.20;99.90;;;;;;5093570;28;20099;-65
2024/01/29 07:23:25;;;;;;;30.70;16.10;;;1.20;99.90;;;;;;5093296;28;20289;-64
2024/01/29 07:25:50;;;;;;;22.88;13.80;;;1.20;99.90;;;;;;5094106;28;20028;-64
2024/01/29 07:28:16;;;;;;;32.45;14.82;;;1.30;99.90;;;;;;5087017;28;20020;-65
2024/01/29 07:30:41;;;;;;;27.15;15.20;;;1.40;99.90;;;;;;5093790;28;20089;-64
2024/01/29 07:33:07;;;;;;;23.80;13.73;;;1.40;99.90;;;;;;5094887;28;20035;-65
2024/01/29 07:35:34;;;;;;;24.58;14.68;;;1.50;99.90;;;;;;5102558;28;20461;-64
2024/01/29 07:38:00;;;;;;;33.35;15.52;;;1.50;99.90;;;;;;5105216;28;20035;-65
2024/01/29 07:40:25;;;;;;;28.73;15.63;;;1.50;99.90;;;;;;5101829;28;20039;-65
2024/01/29 07:42:51;;;;;;;23.55;14.18;;;1.50;99.90;;;;;;5103471;28;20024;-65
2024/01/29 07:45:17;;;;;;;27.77;14.63;;;1.60;99.90;;;;;;5106357;28;20024;-63
2024/01/29 07:47:44;;;;;;;25.38;14.57;;;1.60;99.90;;;;;;5102530;28;20108;-64
2024/01/29 07:50:10;;;;;;;30.27;15.25;;;1.60;99.90;;;;;;5102524;28;20031;-65
2024/01/29 07:52:36;;;;;;;24.98;13.27;;;1.70;99.90;;;;;;5103631;28;20046;-64
2024/01/29 07:55:02;;;;;;;26.38;14.00;;;1.80;99.90;;;;;;5106930;28;20020;-64
2024/01/29 07:57:28;;;;;;;26.27;14.55;;;2.10;99.90;;;;;;5113834;28;20051;-65
2024/01/29 07:59:53;;;;;;;27.02;14.38;;;2.30;99.90;;;;;;5107425;28;20039;-65
2024/01/29 08:02:19;;;;;;;26.33;15.32;;;2.50;99.90;;;;;;5097191;28;20058;-65
2024/01/29 08:04:44;;;;;;;23.85;13.75;;;2.70;99.90;;;;;;5113051;28;20063;-65
2024/01/29 08:07:10;;;;;;;22.10;13.00;;;3.00;99.90;;;;;;5112746;28;20428;-65
2024/01/29 08:09:36;;;;;;;31.80;13.55;;;3.20;99.90;;;;;;5113354;28;20023;-64
2024/01/29 08:12:02;;;;;;;23.73;13.07;;;3.50;99.90;;;;;;5113236;28;20047;-65
2024/01/29 08:14:27;;;;;;;23.60;13.38;;;3.70;99.90;;;;;;5112723;28;20036;-65
2024/01/29 08:16:53;;;;;;;22.42;13.70;;;3.80;99.90;;;;;;5113236;28;20020;-65
2024/01/29 08:19:19;;;;;;;21.90;13.20;;;4.00;99.90;;;;;;5112706;28;20054;-64
2024/01/29 08:21:45;;;;;;;21.02;12.15;;;4.10;99.90;;;;;;5114472;28;20110;-64
2024/01/29 08:24:10;;;;;;;21.58;12.07;;;4.20;99.40;;;;;;5113960;28;20036;-64
2024/01/29 08:26:37;;;;;;;23.58;12.30;;;4.20;98.00;;;;;;5114048;28;20051;-64
2024/01/29 08:29:03;;;;;;;23.23;11.57;;;4.20;97.80;;;;;;5096082;28;20038;-65
2024/01/29 08:31:32;;;;;;;24.15;11.52;;;4.20;97.90;;;;;;5113530;28;20030;-65
2024/01/29 08:33:58;;;;;;;21.50;11.75;;;4.10;96.90;;;;;;5112956;28;20372;-65
2024/01/29 08:36:23;;;;;;;19.13;11.32;;;4.10;97.60;;;;;;5112428;28;20029;-64
2024/01/29 08:38:49;;;;;;;25.17;12.57;;;4.10;97.30;;;;;;5112813;28;20110;-65
2024/01/29 08:41:15;;;;;;;24.80;12.90;;;4.00;97.30;;;;;;5112144;28;20468;-65
2024/01/29 08:43:41;;;;;;;18.73;12.32;;;4.00;97.50;;;;;;5113956;28;20043;-65
2024/01/29 08:46:07;;;;;;;19.77;12.40;;;3.90;97.40;;;;;;5113897;28;20023;-65
2024/01/29 08:48:33;;;;;;;22.38;12.85;;;3.90;97.80;;;;;;5112331;28;20442;-65
2024/01/29 08:50:59;;;;;;;24.55;13.20;;;3.90;97.70;;;;;;5112538;28;20023;-65
2024/01/29 08:53:27;;;;;;;22.25;12.65;;;3.90;97.70;;;;;;5111333;28;20083;-65
2024/01/29 08:55:53;;;;;;;24.02;13.63;;;3.90;97.60;;;;;;5112388;28;20023;-65
2024/01/29 08:58:19;;;;;;;24.42;13.52;;;3.90;97.60;;;;;;5112089;28;20019;-65
2024/01/29 09:00:45;;;;;;;21.08;13.80;;;3.90;97.80;;;;;;5113492;28;20408;-65
2024/01/29 09:03:11;;;;;;;22.40;13.38;;;3.90;97.90;;;;;;5113270;28;20042;-65
2024/01/29 09:05:38;;;;;;;23.48;12.65;;;3.90;97.90;;;;;;5113195;28;20110;-65
2024/01/29 09:08:05;;;;;;;23.25;11.82;;;3.80;98.10;;;;;;5113337;28;20076;-65
2024/01/29 09:10:31;;;;;;;20.52;12.50;;;3.80;97.90;;;;;;5111740;28;20051;-65
2024/01/29 09:12:56;;;;;;;26.23;13.50;;;3.80;97.80;;;;;;5113177;28;20023;-65
2024/01/29 09:15:22;;;;;;;29.00;12.43;;;3.80;97.90;;;;;;5111632;28;20475;-65
2024/01/29 09:17:48;;;;;;;22.02;11.73;;;3.80;98.20;;;;;;5111983;28;20027;-65
2024/01/29 09:20:14;;;;;;;19.58;11.30;;;3.80;98.30;;;;;;5111546;28;20604;-66
2024/01/29 09:22:40;;;;;;;19.17;11.70;;;3.80;98.10;;;;;;5113310;28;20460;-65
2024/01/29 09:25:07;;;;;;;21.48;12.50;;;3.80;98.20;;;;;;5111563;28;20027;-65
2024/01/29 09:27:33;;;;;;;23.45;11.70;;;3.80;98.20;;;;;;5111456;28;20365;-64
2024/01/29 09:30:00;;;;;;;22.25;11.07;;;3.80;98.20;;;;;;5111894;28;20217;-66
2024/01/29 09:32:26;;;;;;;19.52;12.63;;;3.90;98.30;;;;;;5112374;28;20023;-65
2024/01/29 09:34:52;;;;;;;24.35;12.73;;;3.90;98.40;;;;;;5111660;28;20394;-65
2024/01/29 09:37:19;;;;;;;22.38;11.23;;;3.90;98.50;;;;;;5108895;28;20049;-65
2024/01/29 09:39:45;;;;;;;20.33;11.38;;;4.00;98.70;;;;;;5111690;28;20028;-65
2024/01/29 09:42:17;;;;;;;18.45;10.82;;;4.00;98.80;;;;;;5111654;28;20119;-65
2024/01/29 09:44:47;;;;;;;18.33;11.77;;;4.20;99.20;;;;;;5093934;28;20408;-65
2024/01/29 09:47:14;;;;;;;17.08;11.38;;;4.30;99.40;;;;;;5091190;28;20066;-65
2024/01/29 09:49:40;;;;;;;19.77;11.38;;;4.50;99.30;;;;;;5091877;28;20063;-66
2024/01/29 09:52:10;;;;;;;22.65;11.30;;;4.60;99.00;;;;;;5092288;28;20051;-65
2024/01/29 09:54:37;;;;;;;22.23;12.70;;;4.80;98.50;;;;;;5090676;28;20078;-65
2024/01/29 09:57:04;;;;;;;20.10;11.98;;;5.00;98.30;;;;;;5092425;28;20062;-65
2024/01/29 09:59:29;;;;;;;18.20;10.20;;;5.20;98.30;;;;;;5091324;28;20039;-64
2024/01/29 10:01:57;;;;;;;20.88;11.70;;;5.40;97.70;;;;;;5092234;28;20404;-65
2024/01/29 10:04:22;;;;;;;18.92;11.65;;;5.60;96.50;;;;;;5091356;28;20051;-66
2024/01/29 10:06:48;;;;;;;18.90;10.57;;;5.80;95.80;;;;;;5095231;28;20028;-65
2024/01/29 10:09:15;;;;;;;17.50;10.70;;;5.90;95.30;;;;;;5096524;28;20403;-64
2024/01/29 10:11:42;;;;;;;20.20;10.55;;;6.10;94.70;;;;;;5094341;28;20372;-65
2024/01/29 10:14:07;;;;;;;16.95;10.10;;;6.20;94.40;;;;;;5096568;28;20028;-65
2024/01/29 10:16:33;;;;;;;16.33;10.05;;;6.40;93.70;;;;;;5094633;28;20040;-65
2024/01/29 10:19:00;;;;;;;20.92;10.68;;;6.50;93.10;;;;;;5096394;28;20031;-66
2024/01/29 10:21:26;;;;;;;18.20;10.23;;;6.60;93.20;;;;;;5095968;28;20131;-66
2024/01/29 10:23:56;;;;;;;18.67;10.63;;;6.70;93.40;;;;;;5096242;28;20479;-65
2024/01/29 10:26:22;;;;;;;15.32;10.05;;;6.90;93.40;;;;;;5095894;28;20404;-65
2024/01/29 10:29:03;;;;;;;17.77;10.50;;;7.00;92.30;;;;;;5094940;28;20029;-64
2024/01/29 10:31:29;;;;;;;15.05;9.82;;;7.20;92.20;;;;;;5094594;28;20020;-66
2024/01/29 10:33:55;;;;;;;16.98;9.40;;;7.30;92.00;;;;;;5094978;28;20057;-65
2024/01/29 10:36:21;;;;;;;13.15;9.25;;;7.40;91.40;;;;;;5094370;28;20490;-65
2024/01/29 10:38:48;;;;;;;20.63;9.23;;;7.50;91.00;;;;;;5095764;28;20054;-67
2024/01/29 10:41:25;;;;;;;18.05;8.77;;;7.60;90.10;;;;;;5094650;28;20036;-65
2024/01/29 10:43:52;;;;;;;13.82;8.88;;;7.70;89.20;;;;;;5096011;28;20050;-64
2024/01/29 10:46:22;;;;;;;17.52;8.43;;;7.70;88.60;;;;;;5095912;28;20021;-65
2024/01/29 10:48:49;;;;;;;14.23;7.88;;;7.80;87.10;;;;;;5095580;28;20480;-65
2024/01/29 10:51:16;;;;;;;18.63;8.15;;;7.80;86.60;;;;;;5094465;28;20416;-65
2024/01/29 10:53:43;;;;;;;13.98;8.15;;;7.90;85.90;;;;;;5093978;28;20051;-65
2024/01/29 10:56:09;;;;;;;18.13;9.43;;;8.00;85.50;;;;;;5095621;28;20024;-65
2024/01/29 10:58:36;;;;;;;15.88;7.82;;;8.00;85.40;;;;;;5093813;28;20034;-65
2024/01/29 11:01:04;;;;;;;15.23;8.27;;;8.10;84.70;;;;;;5076890;28;20036;-65
2024/01/29 11:03:30;;;;;;;13.00;7.18;;;8.20;84.30;;;;;;5093715;28;20537;-65
2024/01/29 11:05:59;;;;;;;14.45;7.18;;;8.20;84.70;;;;;;5094258;28;20380;-65
2024/01/29 11:08:31;;;;;;;12.40;8.27;;;8.30;83.50;;;;;;5095046;28;20032;-65
2024/01/29 11:10:57;;;;;;;14.13;7.63;;;8.30;82.90;;;;;;5094278;28;20081;-65
2024/01/29 11:13:24;;;;;;;13.80;7.70;;;8.30;82.50;;;;;;5094973;28;20024;-65
2024/01/29 11:15:50;;;;;;;16.15;8.27;;;8.40;83.10;;;;;;5093273;28;20109;-65
2024/01/29 11:18:16;;;;;;;15.25;7.55;;;8.40;83.30;;;;;;5095259;28;20107;-66
2024/01/29 11:20:43;;;;;;;15.25;8.20;;;8.50;82.70;;;;;;5093427;28;20206;-65
2024/01/29 11:23:10;;;;;;;15.23;7.68;;;8.60;83.00;;;;;;5095181;28;20027;-65
2024/01/29 11:25:37;;;;;;;18.73;7.65;;;8.70;82.60;;;;;;5093403;28;20032;-65
2024/01/29 11:28:07;;;;;;;12.23;7.95;;;8.70;81.40;;;;;;5093763;28;20165;-65
2024/01/29 11:30:32;;;;;;;17.42;7.47;;;8.80;80.90;;;;;;5093228;28;20487;-65
2024/01/29 11:33:14;;;;;;;13.18;7.95;;;8.80;81.20;;;;;;5094742;28;20024;-66
2024/01/29 11:35:41;;;;;;;18.42;8.52;;;8.80;82.30;;;;;;5093305;28;20144;-65
2024/01/29 11:38:12;;;;;;;14.35;7.80;;;8.90;81.70;;;;;;5094887;28;20373;-66
2024/01/29 11:40:43;;;;;;;15.00;7.95;;;9.00;80.90;;;;;;5092480;28;20032;-64
2024/01/29 11:43:14;;;;;;;12.90;7.70;;;9.00;80.40;;;;;;5093549;28;20119;-66
2024/01/29 11:45:40;;;;;;;16.08;7.05;;;9.10;81.00;;;;;;5104346;28;20020;-65
2024/01/29 11:48:10;;;;;;;12.73;7.25;;;9.10;79.10;;;;;;5115009;28;20032;-65
2024/01/29 11:50:38;;;;;;;17.48;8.23;;;9.20;78.50;;;;;;5106203;28;20468;-64
2024/01/29 11:53:04;;;;;;;14.43;7.05;;;9.20;77.70;;;;;;5093306;28;20080;-65
2024/01/29 11:55:31;;;;;;;15.55;7.00;;;9.20;77.30;;;;;;5092758;28;20031;-65
2024/01/29 11:57:57;;;;;;;15.82;7.72;;;9.20;77.20;;;;;;5093271;28;20115;-65
2024/01/29 12:00:23;;;;;;;13.85;7.13;;;9.30;77.00;;;;;;5094363;28;20575;-65
2024/01/29 12:02:50;;;;;;;13.88;7.15;;;9.30;76.60;;;;;;5094111;28;20360;-64
2024/01/29 12:05:18;;;;;;;13.32;6.22;;;9.40;76.80;;;;;;5094199;28;20052;-65
2024/01/29 12:07:49;;;;;;;14.20;6.03;;;9.40;75.50;;;;;;5092651;28;20102;-65
2024/01/29 12:10:16;;;;;;;9.52;6.90;;;9.50;75.70;;;;;;5094518;28;20028;-65
2024/01/29 12:12:43;;;;;;;12.95;6.78;;;9.50;75.60;;;;;;5092474;28;20036;-66
2024/01/29 12:15:11;;;;;;;13.48;6.78;;;9.60;74.50;;;;;;5094403;28;20365;-66
2024/01/29 12:17:42;;;;;;;11.35;6.75;;;9.60;74.80;;;;;;5092124;28;20081;-66
2024/01/29 12:20:10;;;;;;;16.02;6.70;;;9.70;74.20;;;;;;5092617;28;20392;-65
2024/01/29 12:22:41;;;;;;;14.35;6.13;;;9.70;73.50;;;;;;5093358;28;20036;-65
2024/01/29 12:25:11;;;;;;;11.27;6.57;;;9.70;73.20;;;;;;5092854;28;20024;-65
2024/01/29 12:27:38;;;;;;;12.38;6.75;;;9.80;73.50;;;;;;5091781;28;20020;-66
2024/01/29 12:30:06;;;;;;;13.90;7.32;;;9.80;73.50;;;;;;5092298;28;20032;-65
2024/01/29 12:32:32;;;;;;;11.45;6.80;;;9.80;73.70;;;;;;5092060;28;20028;-65